createdAt,value
2017-08-02T00:00:59.543Z,17.67
2017-08-02T00:03:27.092Z,17.37
2017-08-02T00:05:54.566Z,17.30
2017-08-02T00:08:22.206Z,18.50
2017-08-02T00:10:49.710Z,19.57
2017-08-02T00:13:17.994Z,22.30
2017-08-02T00:15:45.523Z,22.10
2017-08-02T00:18:12.998Z,20.60
2017-08-02T00:20:41.357Z,22.20
2017-08-02T00:23:09.602Z,20.93
2017-08-02T00:25:37.138Z,22.20
2017-08-02T00:28:04.810Z,21.97
2017-08-02T00:30:32.390Z,23.17
2017-08-02T00:32:59.867Z,21.83
2017-08-02T00:35:27.402Z,22.67
2017-08-02T00:37:55.772Z,24.30
2017-08-02T00:40:23.311Z,23.47
2017-08-02T00:42:50.851Z,24.67
2017-08-02T00:45:19.090Z,27.13
2017-08-02T00:47:47.375Z,25.07
2017-08-02T00:50:15.735Z,22.27
2017-08-02T00:52:43.998Z,23.50
2017-08-02T00:55:11.554Z,24.30
2017-08-02T00:57:39.083Z,24.07
2017-08-02T01:00:07.693Z,23.17
2017-08-02T01:02:35.960Z,23.40
2017-08-02T01:05:03.658Z,22.07
2017-08-02T01:07:31.897Z,24.80
2017-08-02T01:09:59.462Z,24.63
2017-08-02T01:12:27.726Z,22.60
2017-08-02T01:14:55.307Z,22.40
2017-08-02T01:17:23.541Z,22.00
2017-08-02T01:19:51.310Z,21.47
2017-08-02T01:22:19.574Z,23.17
2017-08-02T01:24:47.117Z,24.83
2017-08-02T01:27:15.591Z,24.27
2017-08-02T01:29:43.126Z,25.00
2017-08-02T01:32:11.371Z,24.20
2017-08-02T01:34:40.056Z,23.40
2017-08-02T01:37:07.530Z,23.63
2017-08-02T01:39:35.006Z,24.00
2017-08-02T01:42:02.682Z,24.37
2017-08-02T01:44:30.919Z,25.47
2017-08-02T01:46:58.400Z,24.30
2017-08-02T01:49:25.886Z,23.50
2017-08-02T01:51:53.358Z,24.43
2017-08-02T01:54:21.634Z,25.40
2017-08-02T01:56:49.106Z,24.70
2017-08-02T01:59:16.579Z,24.17
2017-08-02T02:01:44.216Z,22.93
2017-08-02T02:04:11.686Z,26.40
2017-08-02T02:06:39.933Z,26.00
2017-08-02T02:09:07.434Z,26.20
2017-08-02T02:11:34.950Z,24.30
2017-08-02T02:14:02.450Z,24.00
2017-08-02T02:16:30.918Z,27.43
2017-08-02T02:18:58.403Z,24.50
2017-08-02T02:21:25.900Z,25.00
2017-08-02T02:23:54.254Z,26.30
2017-08-02T02:26:22.495Z,27.13
2017-08-02T02:28:50.065Z,26.10
2017-08-02T02:31:17.562Z,23.43
2017-08-02T02:33:45.046Z,26.40
2017-08-02T02:36:13.286Z,25.23
2017-08-02T02:38:40.856Z,25.27
2017-08-02T02:41:08.334Z,24.00
2017-08-02T02:43:35.838Z,25.63
2017-08-02T02:46:04.292Z,26.00
2017-08-02T02:48:32.562Z,22.60
2017-08-02T02:51:00.806Z,21.97
2017-08-02T02:53:28.322Z,22.87
2017-08-02T02:55:55.806Z,23.03
2017-08-02T02:58:23.282Z,21.83
2017-08-02T03:00:50.889Z,22.70
2017-08-02T03:03:19.158Z,24.83
2017-08-02T03:05:46.630Z,23.40
2017-08-02T03:08:14.122Z,24.33
2017-08-02T03:10:42.613Z,25.33
2017-08-02T03:13:10.103Z,24.00
2017-08-02T03:15:37.649Z,24.60
2017-08-02T03:18:05.190Z,24.53
2017-08-02T03:20:32.667Z,22.13
2017-08-02T03:23:00.170Z,21.90
2017-08-02T03:25:28.442Z,23.57
2017-08-02T03:27:55.918Z,23.63
2017-08-02T03:30:23.418Z,23.83
2017-08-02T03:32:50.930Z,25.70
2017-08-02T03:35:18.505Z,25.27
2017-08-02T03:37:46.762Z,23.70
2017-08-02T03:40:15.038Z,25.90
2017-08-02T03:42:42.570Z,27.50
2017-08-02T03:45:10.114Z,25.83
2017-08-02T03:47:37.591Z,28.87
2017-08-02T03:50:05.298Z,28.50
2017-08-02T03:52:33.561Z,28.10
2017-08-02T03:55:01.822Z,27.00
2017-08-02T03:57:29.366Z,28.73
2017-08-02T03:59:56.982Z,28.33
2017-08-02T04:02:24.520Z,31.40
2017-08-02T04:04:52.094Z,31.00
2017-08-02T04:07:19.642Z,29.87
2017-08-02T04:09:47.191Z,31.10
2017-08-02T04:12:14.946Z,28.37
2017-08-02T04:14:42.514Z,30.07
2017-08-02T04:17:10.777Z,31.10
2017-08-02T04:19:39.103Z,28.30
2017-08-02T04:22:06.573Z,28.93
2017-08-02T04:24:34.815Z,27.00
2017-08-02T04:27:02.587Z,25.90
2017-08-02T04:29:31.049Z,26.73
2017-08-02T04:31:59.310Z,27.83
2017-08-02T04:34:27.578Z,27.63
2017-08-02T04:36:55.322Z,29.73
2017-08-02T04:39:23.582Z,29.30
2017-08-02T04:41:51.817Z,29.30
2017-08-02T04:44:19.381Z,33.33
2017-08-02T04:46:46.853Z,32.47
2017-08-02T04:49:14.334Z,34.43
2017-08-02T04:51:42.015Z,34.93
2017-08-02T04:54:09.491Z,35.90
2017-08-02T04:56:36.998Z,38.93
2017-08-02T04:59:05.261Z,38.83
2017-08-02T05:01:32.802Z,39.10
2017-08-02T05:04:00.347Z,39.20
2017-08-02T05:06:28.710Z,41.67
2017-08-02T05:08:56.186Z,41.60
2017-08-02T05:11:23.689Z,42.30
2017-08-02T05:13:52.053Z,41.30
2017-08-02T05:16:20.317Z,39.93
2017-08-02T05:18:47.878Z,41.43
2017-08-02T05:21:15.383Z,41.00
2017-08-02T05:23:42.950Z,39.50
2017-08-02T05:26:10.489Z,40.30
2017-08-02T05:28:38.954Z,39.63
2017-08-02T05:31:07.214Z,38.10
2017-08-02T05:33:35.485Z,40.40
2017-08-02T05:36:03.018Z,37.90
2017-08-02T05:38:31.279Z,37.77
2017-08-02T05:40:59.538Z,35.90
2017-08-02T05:43:28.003Z,37.27
2017-08-02T05:45:56.239Z,34.27
2017-08-02T05:48:23.706Z,33.80
2017-08-02T05:50:51.458Z,34.13
2017-08-02T05:53:18.995Z,34.53
2017-08-02T05:55:47.233Z,32.90
2017-08-02T05:58:14.901Z,35.10
2017-08-02T06:00:42.392Z,33.27
2017-08-02T06:03:09.890Z,33.30
2017-08-02T06:05:38.154Z,35.10
2017-08-02T06:08:05.630Z,37.07
2017-08-02T06:10:33.101Z,34.17
2017-08-02T06:13:00.673Z,37.70
2017-08-02T06:15:28.910Z,37.40
2017-08-02T06:17:56.382Z,35.63
2017-08-02T06:20:24.846Z,34.83
2017-08-02T06:22:52.318Z,36.90
2017-08-02T06:25:19.790Z,35.53
2017-08-02T06:27:47.286Z,34.87
2017-08-02T06:30:14.809Z,36.70
2017-08-02T06:32:43.050Z,35.33
2017-08-02T06:35:10.818Z,32.77
2017-08-02T06:37:39.073Z,31.93
2017-08-02T06:40:06.559Z,33.80
2017-08-02T06:42:34.165Z,37.07
2017-08-02T06:45:02.407Z,33.80
2017-08-02T06:47:29.877Z,34.90
2017-08-02T06:49:57.415Z,35.70
2017-08-02T06:52:24.890Z,36.30
2017-08-02T06:54:52.398Z,37.10
2017-08-02T06:57:20.857Z,37.73
2017-08-02T06:59:49.106Z,35.33
2017-08-02T07:02:16.663Z,34.37
2017-08-02T07:04:44.923Z,35.20
2017-08-02T07:07:13.197Z,34.70
2017-08-02T07:09:40.670Z,33.30
2017-08-02T07:12:08.137Z,34.90
2017-08-02T07:14:35.801Z,36.10
2017-08-02T07:17:04.074Z,35.33
2017-08-02T07:19:32.306Z,35.40
2017-08-02T07:21:59.801Z,33.60
2017-08-02T07:24:27.270Z,36.20
2017-08-02T07:26:54.862Z,36.77
2017-08-02T07:29:23.103Z,37.63
2017-08-02T07:31:50.666Z,35.73
2017-08-02T07:34:19.054Z,36.97
2017-08-02T07:36:46.878Z,35.10
2017-08-02T07:39:15.119Z,36.83
2017-08-02T07:41:42.681Z,36.17
2017-08-02T07:44:11.468Z,33.87
2017-08-02T07:46:39.104Z,35.20
2017-08-02T07:49:06.748Z,33.40
2017-08-02T07:51:34.987Z,33.73
2017-08-02T07:54:02.458Z,30.17
2017-08-02T07:56:29.986Z,31.40
2017-08-02T07:58:58.222Z,29.60
2017-08-02T08:01:25.795Z,28.60
2017-08-02T08:03:54.258Z,27.20
2017-08-02T08:06:22.495Z,25.53
2017-08-02T08:08:49.975Z,25.00
2017-08-02T08:11:17.707Z,23.40
2017-08-02T08:13:45.970Z,20.90
2017-08-02T08:16:14.201Z,19.97
2017-08-02T08:18:41.706Z,20.30
2017-08-02T08:21:09.186Z,17.83
2017-08-02T08:23:36.758Z,16.87
2017-08-02T08:26:05.223Z,19.10
2017-08-02T08:28:33.458Z,19.00
2017-08-02T08:31:00.974Z,16.90
2017-08-02T08:33:28.477Z,19.00
2017-08-02T08:35:55.952Z,17.80
2017-08-02T08:38:23.419Z,17.70
2017-08-02T08:40:51.100Z,18.10
2017-08-02T08:43:18.593Z,18.27
2017-08-02T08:45:46.083Z,17.83
2017-08-02T08:48:14.446Z,18.33
2017-08-02T08:50:42.705Z,18.20
2017-08-02T08:53:10.966Z,18.10
2017-08-02T08:55:38.486Z,18.87
2017-08-02T08:58:05.954Z,18.90
2017-08-02T09:00:34.190Z,18.40
2017-08-02T09:03:01.759Z,18.03
2017-08-02T09:05:29.990Z,19.10
2017-08-02T09:07:57.566Z,17.30
2017-08-02T09:10:25.806Z,16.70
2017-08-02T09:12:55.399Z,16.77
2017-08-02T09:15:23.146Z,15.10
2017-08-02T09:17:51.642Z,14.60
2017-08-02T09:20:19.938Z,13.20
2017-08-02T09:22:47.543Z,13.13
2017-08-02T09:25:15.806Z,13.17
2017-08-02T09:27:44.063Z,11.93
2017-08-02T09:30:12.437Z,14.27
2017-08-02T09:32:39.922Z,17.43
2017-08-02T09:35:07.412Z,18.37
2017-08-02T09:37:35.774Z,20.17
2017-08-02T09:40:04.010Z,24.03
2017-08-02T09:42:31.486Z,28.53
2017-08-02T09:44:58.993Z,27.00
2017-08-02T09:47:26.471Z,25.17
2017-08-02T09:51:11.787Z,24.73
2017-08-02T09:53:39.246Z,24.23
2017-08-02T09:56:06.706Z,25.30
2017-08-02T09:58:34.186Z,23.20
2017-08-02T10:01:01.650Z,25.37
2017-08-02T10:03:29.311Z,26.10
2017-08-02T10:05:56.776Z,26.07
2017-08-02T10:08:24.238Z,28.33
2017-08-02T10:10:52.482Z,24.50
2017-08-02T10:13:19.941Z,27.87
2017-08-02T10:15:47.999Z,28.60
2017-08-02T10:18:15.458Z,27.07
2017-08-02T10:20:42.922Z,24.40
2017-08-02T10:23:10.430Z,22.83
2017-08-02T10:25:37.889Z,23.80
2017-08-02T10:28:05.357Z,23.90
2017-08-02T10:30:33.636Z,20.60
2017-08-02T10:33:01.099Z,20.17
2017-08-02T10:35:29.148Z,21.90
2017-08-02T10:37:56.866Z,17.63
2017-08-02T10:40:25.126Z,17.70
2017-08-02T10:42:53.358Z,19.40
2017-08-02T10:45:20.930Z,13.10
2017-08-02T10:47:49.162Z,12.37
2017-08-02T10:50:16.622Z,10.13
2017-08-02T10:52:44.381Z,11.97
2017-08-02T10:55:12.614Z,12.90
2017-08-02T10:57:40.087Z,12.30
2017-08-02T11:00:08.649Z,11.53
2017-08-02T11:02:36.910Z,10.73
2017-08-02T11:05:05.191Z,10.40
2017-08-02T11:07:33.517Z,10.67
2017-08-02T11:10:01.738Z,9.00
2017-08-02T11:12:29.226Z,8.70
2017-08-02T11:14:57.583Z,9.43
2017-08-02T11:17:25.801Z,9.00
2017-08-02T11:19:53.693Z,7.13
2017-08-02T11:22:21.290Z,8.70
2017-08-02T11:24:49.514Z,9.23
2017-08-02T11:27:16.978Z,9.57
2017-08-02T11:29:44.543Z,9.63
2017-08-02T11:32:12.812Z,9.10
2017-08-02T11:34:41.057Z,10.10
2017-08-02T11:37:09.545Z,10.20
2017-08-02T11:39:37.010Z,8.70
2017-08-02T11:42:04.470Z,9.30
2017-08-02T11:44:32.130Z,7.37
2017-08-02T11:47:00.362Z,6.70
2017-08-02T11:49:27.834Z,7.80
2017-08-02T11:51:55.353Z,7.33
2017-08-02T11:54:23.574Z,5.97
2017-08-02T11:56:51.079Z,4.70
2017-08-02T11:59:18.607Z,4.90
2017-08-02T12:01:47.003Z,7.30
2017-08-02T12:04:14.542Z,5.90
2017-08-02T12:06:42.802Z,5.17
2017-08-02T12:09:11.062Z,6.00
2017-08-02T12:11:39.291Z,5.70
2017-08-02T12:14:06.966Z,6.20
2017-08-02T12:16:35.229Z,7.00
2017-08-02T12:19:03.463Z,7.40
2017-08-02T12:21:31.133Z,5.97
2017-08-02T12:23:59.358Z,6.37
2017-08-02T12:26:26.818Z,6.13
2017-08-02T12:28:54.406Z,6.33
2017-08-02T12:31:21.924Z,5.40
2017-08-02T12:33:50.181Z,4.37
2017-08-02T12:36:18.641Z,4.20
2017-08-02T12:38:46.902Z,4.80
2017-08-02T12:41:15.170Z,5.03
2017-08-02T12:43:43.630Z,4.60
2017-08-02T12:46:11.926Z,5.07
2017-08-02T12:48:39.438Z,5.20
2017-08-02T12:51:07.001Z,4.10
2017-08-02T12:53:34.465Z,2.93
2017-08-02T12:56:01.938Z,3.30
2017-08-02T12:58:30.403Z,4.00
2017-08-02T13:00:58.658Z,3.20
2017-08-02T13:03:26.922Z,3.63
2017-08-02T13:05:55.386Z,3.10
2017-08-02T13:08:23.642Z,3.17
2017-08-02T13:10:51.907Z,3.13
2017-08-02T13:13:20.177Z,2.40
2017-08-02T13:15:47.647Z,2.73
2017-08-02T13:18:15.190Z,2.70
2017-08-02T13:20:43.627Z,2.60
2017-08-02T13:23:11.944Z,2.67
2017-08-02T13:25:39.437Z,3.10
2017-08-02T13:28:07.701Z,2.80
2017-08-02T13:30:35.934Z,3.27
2017-08-02T13:33:03.408Z,2.97
2017-08-02T13:35:31.683Z,2.83
2017-08-02T13:37:59.205Z,2.70
2017-08-02T13:40:27.461Z,2.30
2017-08-02T13:42:55.730Z,2.83
2017-08-02T13:45:23.990Z,3.57
2017-08-02T13:47:51.485Z,2.80
2017-08-02T13:50:19.103Z,3.27
2017-08-02T13:52:47.332Z,4.00
2017-08-02T13:55:14.905Z,3.30
2017-08-02T13:57:43.126Z,3.63
2017-08-02T14:00:10.614Z,3.23
2017-08-02T14:02:38.879Z,3.30
2017-08-02T14:05:07.126Z,4.00
2017-08-02T14:07:35.394Z,3.83
2017-08-02T14:10:03.854Z,3.93
2017-08-02T14:12:32.082Z,3.10
2017-08-02T14:14:59.543Z,3.83
2017-08-02T14:17:27.093Z,3.00
2017-08-02T14:19:55.358Z,3.27
2017-08-02T14:22:23.789Z,3.40
2017-08-02T14:24:51.263Z,3.03
2017-08-02T14:27:19.535Z,3.13
2017-08-02T14:29:47.987Z,3.73
2017-08-02T14:32:16.206Z,3.93
2017-08-02T14:34:43.677Z,3.10
2017-08-02T14:37:12.183Z,3.27
2017-08-02T14:39:39.630Z,3.40
2017-08-02T14:42:07.094Z,3.57
2017-08-02T14:44:34.782Z,3.60
2017-08-02T14:47:02.998Z,3.83
2017-08-02T14:49:30.470Z,3.30
2017-08-02T14:51:58.733Z,3.90
2017-08-02T14:54:26.966Z,3.50
2017-08-02T14:56:54.434Z,3.60
2017-08-02T14:59:22.898Z,2.97
2017-08-02T15:01:51.133Z,3.00
2017-08-02T15:04:18.601Z,3.50
2017-08-02T15:06:47.338Z,3.10
2017-08-02T15:09:14.799Z,3.90
2017-08-02T15:11:42.350Z,3.70
2017-08-02T15:14:10.614Z,3.43
2017-08-02T15:16:39.073Z,3.30
2017-08-02T15:19:07.362Z,3.50
2017-08-02T15:21:34.814Z,3.50
2017-08-02T15:24:02.402Z,3.00
2017-08-02T15:26:29.859Z,3.77
2017-08-02T15:28:57.415Z,3.23
2017-08-02T15:31:25.676Z,3.53
2017-08-02T15:33:53.136Z,3.47
2017-08-02T15:36:20.725Z,3.33
2017-08-02T15:38:48.978Z,3.17
2017-08-02T15:41:17.204Z,3.17
2017-08-02T15:43:44.991Z,3.63
2017-08-02T15:46:13.294Z,4.37
2017-08-02T15:48:40.750Z,4.20
2017-08-02T15:51:08.259Z,3.73
2017-08-02T15:53:35.710Z,3.57
2017-08-02T15:56:03.218Z,3.67
2017-08-02T15:58:31.678Z,4.00
2017-08-02T16:00:59.902Z,3.70
2017-08-02T16:03:28.398Z,3.80
2017-08-02T16:05:56.049Z,4.20
2017-08-02T16:08:24.318Z,3.40
2017-08-02T16:10:52.578Z,7.10
2017-08-02T16:13:21.037Z,4.67
2017-08-02T16:15:49.061Z,6.03
2017-08-02T16:18:16.562Z,3.90
2017-08-02T16:20:45.019Z,3.83
2017-08-02T16:23:13.246Z,3.50
2017-08-02T16:25:40.801Z,3.97
2017-08-02T16:28:09.227Z,3.63
2017-08-02T16:30:36.682Z,3.77
2017-08-02T16:33:04.174Z,3.50
2017-08-02T16:35:32.453Z,4.00
2017-08-02T16:37:59.914Z,3.10
2017-08-02T16:40:27.373Z,3.27
2017-08-02T16:42:55.735Z,3.33
2017-08-02T16:45:23.954Z,3.77
2017-08-02T16:47:51.438Z,3.10
2017-08-02T16:50:19.804Z,4.07
2017-08-02T16:52:48.040Z,3.10
2017-08-02T16:55:15.686Z,3.10
2017-08-02T16:57:44.050Z,3.43
2017-08-02T17:00:12.361Z,3.63
2017-08-02T17:02:40.617Z,3.63
2017-08-02T17:05:09.087Z,3.43
2017-08-02T17:07:37.347Z,3.43
2017-08-02T17:10:05.649Z,3.63
2017-08-02T17:12:34.242Z,3.40
2017-08-02T17:15:01.702Z,3.67
2017-08-02T17:17:29.255Z,3.90
2017-08-02T17:19:57.514Z,3.40
2017-08-02T17:22:25.779Z,3.27
2017-08-02T17:24:54.206Z,3.63
2017-08-02T17:27:22.778Z,3.90
2017-08-02T17:29:50.998Z,3.67
2017-08-02T17:32:18.458Z,4.53
2017-08-02T17:34:46.018Z,4.50
2017-08-02T17:37:14.279Z,4.17
2017-08-02T17:39:43.418Z,4.00
2017-08-02T17:42:11.078Z,4.40
2017-08-02T17:44:38.546Z,4.20
2017-08-02T17:47:07.522Z,4.50
2017-08-02T17:49:35.986Z,4.57
2017-08-02T17:52:04.215Z,4.57
2017-08-02T17:54:31.674Z,4.17
2017-08-02T17:56:59.925Z,4.77
2017-08-02T17:59:32.080Z,3.93
2017-08-02T18:01:59.585Z,4.57
2017-08-02T18:04:27.079Z,4.90
2017-08-02T18:06:55.430Z,5.03
2017-08-02T18:09:23.698Z,4.23
2017-08-02T18:11:51.231Z,5.10
2017-08-02T18:14:20.078Z,4.70
2017-08-02T18:16:47.571Z,4.43
2017-08-02T18:19:15.037Z,5.43
2017-08-02T18:21:42.502Z,5.10
2017-08-02T18:24:10.134Z,6.50
2017-08-02T18:26:37.647Z,7.53
2017-08-02T18:29:05.116Z,7.40
2017-08-02T18:31:32.622Z,7.10
2017-08-02T18:34:00.982Z,6.87
2017-08-02T18:36:29.242Z,6.00
2017-08-02T18:38:57.607Z,5.43
2017-08-02T18:41:25.877Z,5.60
2017-08-02T18:43:53.410Z,5.27
2017-08-02T18:46:21.738Z,6.27
2017-08-02T18:48:49.526Z,6.20
2017-08-02T18:51:17.760Z,5.03
2017-08-02T18:53:45.269Z,5.40
2017-08-02T18:56:12.987Z,5.00
2017-08-02T18:58:40.450Z,5.60
2017-08-02T19:01:07.914Z,5.53
2017-08-02T19:03:35.504Z,6.10
2017-08-02T19:06:03.754Z,5.67
2017-08-02T19:08:32.027Z,6.40
2017-08-02T19:10:59.607Z,6.50
2017-08-02T19:13:27.834Z,6.47
2017-08-02T19:15:55.311Z,6.93
2017-08-02T19:18:23.673Z,6.20
2017-08-02T19:20:51.911Z,7.40
2017-08-02T19:23:19.388Z,7.00
2017-08-02T19:25:47.018Z,6.97
2017-08-02T19:28:15.278Z,7.30
2017-08-02T19:30:43.506Z,6.97
2017-08-02T19:33:11.143Z,7.20
2017-08-02T19:35:38.626Z,6.93
2017-08-02T19:38:06.891Z,6.30
2017-08-02T19:40:35.145Z,6.97
2017-08-02T19:43:03.402Z,7.13
2017-08-02T19:45:31.646Z,7.27
2017-08-02T19:47:59.139Z,6.87
2017-08-02T19:50:26.602Z,6.90
2017-08-02T19:52:54.099Z,7.30
2017-08-02T19:55:22.448Z,7.10
2017-08-02T19:57:50.714Z,7.40
2017-08-02T20:00:19.768Z,7.20
2017-08-02T20:02:47.334Z,7.03
2017-08-02T20:05:15.566Z,7.47
2017-08-02T20:07:43.032Z,8.33
2017-08-02T20:10:11.299Z,7.50
2017-08-02T20:12:39.527Z,8.13
2017-08-02T20:15:06.985Z,9.03
2017-08-02T20:17:34.538Z,7.40
2017-08-02T20:20:02.807Z,8.23
2017-08-02T20:22:31.029Z,7.43
2017-08-02T20:24:58.705Z,7.97
2017-08-02T20:27:26.975Z,11.00
2017-08-02T20:29:55.202Z,8.20
2017-08-02T20:32:22.713Z,8.07
2017-08-02T20:34:50.174Z,7.40
2017-08-02T20:37:17.646Z,7.30
2017-08-02T20:39:45.892Z,8.30
2017-08-02T20:42:13.575Z,7.90
2017-08-02T20:44:41.111Z,8.67
2017-08-02T20:47:09.371Z,9.60
2017-08-02T20:49:37.639Z,9.00
2017-08-02T20:52:05.101Z,7.80
2017-08-02T20:54:32.574Z,7.80
2017-08-02T20:57:00.256Z,7.73
2017-08-02T20:59:28.487Z,8.30
2017-08-02T21:01:55.952Z,8.30
2017-08-02T21:04:24.218Z,8.60
2017-08-02T21:06:52.582Z,9.70
2017-08-02T21:09:20.823Z,9.50
2017-08-02T21:11:48.484Z,9.10
2017-08-02T21:14:16.746Z,9.20
2017-08-02T21:16:45.001Z,9.17
2017-08-02T21:19:13.262Z,9.37
2017-08-02T21:21:41.530Z,10.27
2017-08-02T21:24:09.801Z,11.07
2017-08-02T21:26:37.273Z,10.23
2017-08-02T21:29:04.742Z,10.00
2017-08-02T21:31:32.237Z,9.70
2017-08-02T21:33:59.762Z,9.23
2017-08-02T21:36:28.060Z,9.33
2017-08-02T21:38:55.575Z,10.10
2017-08-02T21:41:23.051Z,10.53
2017-08-02T21:43:50.550Z,10.33
2017-08-02T21:46:19.010Z,10.87
2017-08-02T21:48:47.274Z,11.67
2017-08-02T21:51:15.538Z,11.53
2017-08-02T21:53:43.074Z,10.60
2017-08-02T21:56:11.306Z,10.10
2017-08-02T21:58:38.878Z,10.70
2017-08-02T22:01:12.990Z,9.37
2017-08-02T22:03:40.517Z,10.30
2017-08-02T22:06:08.778Z,10.20
2017-08-02T22:08:37.139Z,9.40
2017-08-02T22:11:05.370Z,10.10
2017-08-02T22:13:32.942Z,10.97
2017-08-02T22:16:01.206Z,11.93
2017-08-02T22:18:29.566Z,11.00
2017-08-02T22:20:57.826Z,11.97
2017-08-02T22:23:26.090Z,11.47
2017-08-02T22:25:54.549Z,12.40
2017-08-02T22:28:22.790Z,11.77
2017-08-02T22:30:50.358Z,13.43
2017-08-02T22:33:18.722Z,13.50
2017-08-02T22:35:46.962Z,15.60
2017-08-02T22:38:14.522Z,14.50
2017-08-02T22:40:42.887Z,15.87
2017-08-02T22:43:11.151Z,17.00
2017-08-02T22:45:39.382Z,15.90
2017-08-02T22:48:07.150Z,18.60
2017-08-02T22:50:35.514Z,17.23
2017-08-02T22:53:03.782Z,17.67
2017-08-02T22:55:32.238Z,18.03
2017-08-02T22:58:00.473Z,19.30
2017-08-02T23:00:27.944Z,20.80
2017-08-02T23:02:56.198Z,21.47
2017-08-02T23:05:24.566Z,21.70
2017-08-02T23:07:52.838Z,22.67
2017-08-02T23:10:20.378Z,20.30
2017-08-02T23:12:48.621Z,21.33
2017-08-02T23:15:16.990Z,21.20
2017-08-02T23:17:45.254Z,22.03
2017-08-02T23:20:13.490Z,22.70
2017-08-02T23:22:41.059Z,21.40
2017-08-02T23:25:09.298Z,22.60
2017-08-02T23:27:36.858Z,22.17
2017-08-02T23:30:05.090Z,24.13
2017-08-02T23:32:32.557Z,22.07
2017-08-02T23:35:01.023Z,23.57
2017-08-02T23:37:29.287Z,26.60
2017-08-02T23:39:57.546Z,25.60
2017-08-02T23:42:25.809Z,26.70
2017-08-02T23:44:54.041Z,25.73
2017-08-02T23:47:21.610Z,28.87
2017-08-02T23:49:50.074Z,24.93
2017-08-02T23:52:18.437Z,25.87
2017-08-02T23:54:46.698Z,24.83
2017-08-02T23:57:14.954Z,26.20
2017-08-02T23:59:43.318Z,26.77
